Aérodrome :







RETROUVEZ-NOUS SUR...

 
LOGIN :

S'inscrire | Disclaimer

   EN    FR    IT 

 









Légende :    VFR   VFR Marginal   IFR   IFR Intensif   IFR Très Intensif
Visi : 
Plafond : 
>= 8 km
>= 3000ft
5 à 8 km
1000 à 3000 ft
1500m à 5 km
500 à 1000 ft
800 à 1500m
200 à 500 ft
< 800m
< 200 ft
Symboles :   Orages  Brouillard  Fortes neiges  Fortes précipitations  Vent > 20 kt






- Altitude de l'aérodrome : 930 ft


KEFK - Newport State

DERNIER METAR :
  • 150320Z AUTO 20008KT 4SM -DZ SCT007 BKN011 OVC026 07/07 A2894 RMK AO2 T00720072

METARs EXPIRÉS :
  • 150315Z AUTO 20011KT 3SM DZ BKN007 BKN013 OVC018 07/07 A2895 RMK AO2 T00700070
  • 150256Z AUTO 23007KT 5SM BR SCT002 SCT007 OVC013 06/06 A2894 RMK AO2 T00560056
  • 150239Z AUTO 22004KT 4SM BR SCT002 SCT010 OVC015 05/05 A2894 RMK AO2 T00520052
  • 150235Z AUTO 24004KT 5SM BR SCT002 SCT010 OVC015 05/05 A2895 RMK AO2 T00510051
  • 150216Z AUTO 24004KT 10SM -RA OVC015 06/06 A2895 RMK AO2 T00570057
  • 150155Z AUTO 19004KT 1 1/4SM BR OVC015 05/05 A2896 RMK AO2 T00470047
  • 150136Z AUTO 22003KT 1/2SM -RA BKN005 OVC015 04/04 A2897 RMK AO2 T00410041
  • 150115Z AUTO 00000KT 1SM -DZ OVC005 05/05 A2898 RMK AO2 T00460046
  • 150056Z AUTO 00000KT 3/4SM -RA OVC005 04/04 A2900 RMK AO2 T00410041
  • 150035Z AUTO 00000KT 3/4SM RA OVC007 05/05 A2901 RMK AO2 T00460046

TAF N/A



MET'MAP, la Météo Aéronautique d'un coup d'oeil ! - Copyright ORBIFLY Décembre 2007 - Disclaimer

ORBIFLY MET'MAP TEAM :

Programmation & Développement : Alexandra Zaïnal
Sur une idée originale de : Baudouin d'Aumeries
Assistance à la programmation : Marc-Olivier Méhu
Soutien technique & logistique : Manuel Goepfert

Contact : metmap@orbifly.com




SOURCES & CREDITS :

   NOAA